sensor_id;sensor_type;location;lat;lon;timestamp;P1;durP1;ratioP1;P2;durP2;ratioP2
21038;SDS011;10678;51.002;4.786;2023-05-23T00:01:14;49.08;;;27.00;;
21038;SDS011;10678;51.002;4.786;2023-05-23T00:03:41;47.80;;;26.23;;
21038;SDS011;10678;51.002;4.786;2023-05-23T00:06:07;46.33;;;26.88;;
21038;SDS011;10678;51.002;4.786;2023-05-23T00:08:33;53.67;;;27.58;;
21038;SDS011;10678;51.002;4.786;2023-05-23T00:10:59;62.95;;;29.23;;
21038;SDS011;10678;51.002;4.786;2023-05-23T00:13:24;50.85;;;28.02;;
21038;SDS011;10678;51.002;4.786;2023-05-23T00:15:50;51.70;;;28.83;;
21038;SDS011;10678;51.002;4.786;2023-05-23T00:18:16;50.60;;;28.20;;
21038;SDS011;10678;51.002;4.786;2023-05-23T00:20:42;48.15;;;27.75;;
21038;SDS011;10678;51.002;4.786;2023-05-23T00:23:09;53.58;;;26.90;;
21038;SDS011;10678;51.002;4.786;2023-05-23T00:25:35;53.08;;;25.65;;
21038;SDS011;10678;51.002;4.786;2023-05-23T00:28:02;45.20;;;25.92;;
21038;SDS011;10678;51.002;4.786;2023-05-23T00:30:29;47.30;;;24.70;;
21038;SDS011;10678;51.002;4.786;2023-05-23T00:32:55;44.28;;;23.70;;
21038;SDS011;10678;51.002;4.786;2023-05-23T00:35:21;43.40;;;24.05;;
21038;SDS011;10678;51.002;4.786;2023-05-23T00:37:47;42.40;;;23.50;;
21038;SDS011;10678;51.002;4.786;2023-05-23T00:40:16;37.45;;;21.67;;
21038;SDS011;10678;51.002;4.786;2023-05-23T00:42:42;41.67;;;22.75;;
21038;SDS011;10678;51.002;4.786;2023-05-23T00:45:08;38.55;;;22.00;;
21038;SDS011;10678;51.002;4.786;2023-05-23T00:47:36;40.25;;;21.98;;
21038;SDS011;10678;51.002;4.786;2023-05-23T00:50:03;40.05;;;21.10;;
21038;SDS011;10678;51.002;4.786;2023-05-23T00:52:32;46.83;;;22.70;;
21038;SDS011;10678;51.002;4.786;2023-05-23T00:54:58;49.47;;;22.85;;
21038;SDS011;10678;51.002;4.786;2023-05-23T00:57:23;39.10;;;24.38;;
21038;SDS011;10678;51.002;4.786;2023-05-23T00:59:49;42.75;;;23.95;;
21038;SDS011;10678;51.002;4.786;2023-05-23T01:02:15;40.67;;;22.80;;
21038;SDS011;10678;51.002;4.786;2023-05-23T01:04:41;46.38;;;25.00;;
21038;SDS011;10678;51.002;4.786;2023-05-23T01:07:08;41.22;;;23.58;;
21038;SDS011;10678;51.002;4.786;2023-05-23T01:09:35;44.40;;;24.40;;
21038;SDS011;10678;51.002;4.786;2023-05-23T01:14:44;42.97;;;23.38;;
21038;SDS011;10678;51.002;4.786;2023-05-23T01:17:22;35.78;;;20.67;;
21038;SDS011;10678;51.002;4.786;2023-05-23T01:20:11;35.00;;;19.85;;
21038;SDS011;10678;51.002;4.786;2023-05-23T01:25:27;35.10;;;17.40;;
21038;SDS011;10678;51.002;4.786;2023-05-23T01:28:07;31.20;;;17.05;;
21038;SDS011;10678;51.002;4.786;2023-05-23T01:30:38;29.08;;;16.30;;
21038;SDS011;10678;51.002;4.786;2023-05-23T01:33:05;27.33;;;15.07;;
21038;SDS011;10678;51.002;4.786;2023-05-23T01:35:33;25.30;;;15.18;;
21038;SDS011;10678;51.002;4.786;2023-05-23T01:37:59;24.27;;;15.55;;
21038;SDS011;10678;51.002;4.786;2023-05-23T01:40:25;26.27;;;14.45;;
21038;SDS011;10678;51.002;4.786;2023-05-23T01:42:51;26.13;;;15.38;;
21038;SDS011;10678;51.002;4.786;2023-05-23T01:45:19;28.55;;;16.55;;
21038;SDS011;10678;51.002;4.786;2023-05-23T01:47:46;26.77;;;15.93;;
21038;SDS011;10678;51.002;4.786;2023-05-23T01:50:15;28.60;;;16.92;;
21038;SDS011;10678;51.002;4.786;2023-05-23T01:52:41;30.02;;;15.00;;
21038;SDS011;10678;51.002;4.786;2023-05-23T01:55:07;31.55;;;17.20;;
21038;SDS011;10678;51.002;4.786;2023-05-23T01:57:34;29.45;;;15.88;;
21038;SDS011;10678;51.002;4.786;2023-05-23T02:00:04;37.78;;;17.88;;
21038;SDS011;10678;51.002;4.786;2023-05-23T02:02:31;29.13;;;15.25;;
21038;SDS011;10678;51.002;4.786;2023-05-23T02:04:58;35.00;;;17.15;;
21038;SDS011;10678;51.002;4.786;2023-05-23T02:07:23;27.20;;;16.70;;
21038;SDS011;10678;51.002;4.786;2023-05-23T02:09:49;29.75;;;15.95;;
21038;SDS011;10678;51.002;4.786;2023-05-23T02:12:15;29.00;;;15.27;;
21038;SDS011;10678;51.002;4.786;2023-05-23T02:14:40;27.38;;;16.35;;
21038;SDS011;10678;51.002;4.786;2023-05-23T02:17:07;27.35;;;14.98;;
21038;SDS011;10678;51.002;4.786;2023-05-23T02:19:35;27.17;;;15.00;;
21038;SDS011;10678;51.002;4.786;2023-05-23T02:22:01;21.15;;;13.55;;
21038;SDS011;10678;51.002;4.786;2023-05-23T02:24:27;20.95;;;13.45;;
21038;SDS011;10678;51.002;4.786;2023-05-23T02:26:53;19.75;;;12.82;;
21038;SDS011;10678;51.002;4.786;2023-05-23T02:29:18;21.13;;;12.27;;
21038;SDS011;10678;51.002;4.786;2023-05-23T02:31:44;21.80;;;12.85;;
21038;SDS011;10678;51.002;4.786;2023-05-23T02:34:10;18.52;;;11.32;;
21038;SDS011;10678;51.002;4.786;2023-05-23T02:36:35;19.83;;;11.65;;
21038;SDS011;10678;51.002;4.786;2023-05-23T02:39:04;21.70;;;11.68;;
21038;SDS011;10678;51.002;4.786;2023-05-23T02:41:30;16.55;;;11.18;;
21038;SDS011;10678;51.002;4.786;2023-05-23T02:43:56;21.60;;;11.57;;
21038;SDS011;10678;51.002;4.786;2023-05-23T02:46:22;23.55;;;11.77;;
21038;SDS011;10678;51.002;4.786;2023-05-23T02:48:48;18.67;;;13.27;;
21038;SDS011;10678;51.002;4.786;2023-05-23T02:51:14;24.00;;;14.68;;
21038;SDS011;10678;51.002;4.786;2023-05-23T02:53:40;23.02;;;14.27;;
21038;SDS011;10678;51.002;4.786;2023-05-23T02:56:06;23.60;;;15.02;;
21038;SDS011;10678;51.002;4.786;2023-05-23T02:58:32;26.83;;;14.95;;
21038;SDS011;10678;51.002;4.786;2023-05-23T03:00:59;28.27;;;15.18;;
21038;SDS011;10678;51.002;4.786;2023-05-23T03:03:28;30.10;;;14.68;;
21038;SDS011;10678;51.002;4.786;2023-05-23T03:05:55;28.67;;;15.73;;
21038;SDS011;10678;51.002;4.786;2023-05-23T03:08:22;30.27;;;15.68;;
21038;SDS011;10678;51.002;4.786;2023-05-23T03:10:48;30.88;;;16.83;;
21038;SDS011;10678;51.002;4.786;2023-05-23T03:13:13;34.35;;;17.45;;
21038;SDS011;10678;51.002;4.786;2023-05-23T03:15:40;34.13;;;16.88;;
21038;SDS011;10678;51.002;4.786;2023-05-23T03:18:05;35.78;;;18.42;;
21038;SDS011;10678;51.002;4.786;2023-05-23T03:20:31;35.17;;;18.10;;
21038;SDS011;10678;51.002;4.786;2023-05-23T03:22:57;33.20;;;16.35;;
21038;SDS011;10678;51.002;4.786;2023-05-23T03:25:23;32.00;;;17.42;;
21038;SDS011;10678;51.002;4.786;2023-05-23T03:27:48;35.15;;;16.27;;
21038;SDS011;10678;51.002;4.786;2023-05-23T03:30:14;31.55;;;16.73;;
21038;SDS011;10678;51.002;4.786;2023-05-23T03:32:40;32.95;;;15.27;;
21038;SDS011;10678;51.002;4.786;2023-05-23T03:35:06;28.33;;;14.88;;
21038;SDS011;10678;51.002;4.786;2023-05-23T03:37:32;29.73;;;14.45;;
21038;SDS011;10678;51.002;4.786;2023-05-23T03:39:58;29.27;;;14.15;;
21038;SDS011;10678;51.002;4.786;2023-05-23T03:42:23;24.33;;;12.73;;
21038;SDS011;10678;51.002;4.786;2023-05-23T03:44:49;22.98;;;11.43;;
21038;SDS011;10678;51.002;4.786;2023-05-23T03:47:14;20.70;;;10.75;;
21038;SDS011;10678;51.002;4.786;2023-05-23T03:49:40;20.70;;;10.60;;
21038;SDS011;10678;51.002;4.786;2023-05-23T03:52:06;21.05;;;10.60;;
21038;SDS011;10678;51.002;4.786;2023-05-23T03:54:31;21.35;;;10.73;;
21038;SDS011;10678;51.002;4.786;2023-05-23T03:56:57;22.13;;;9.00;;
21038;SDS011;10678;51.002;4.786;2023-05-23T03:59:22;22.98;;;9.50;;
21038;SDS011;10678;51.002;4.786;2023-05-23T04:01:48;20.45;;;9.45;;
21038;SDS011;10678;51.002;4.786;2023-05-23T04:04:14;18.25;;;9.52;;
21038;SDS011;10678;51.002;4.786;2023-05-23T04:06:41;17.38;;;9.30;;
21038;SDS011;10678;51.002;4.786;2023-05-23T04:09:07;21.27;;;9.00;;
21038;SDS011;10678;51.002;4.786;2023-05-23T04:11:33;16.15;;;8.18;;
21038;SDS011;10678;51.002;4.786;2023-05-23T04:13:58;17.25;;;9.15;;
21038;SDS011;10678;51.002;4.786;2023-05-23T04:16:25;22.35;;;9.23;;
21038;SDS011;10678;51.002;4.786;2023-05-23T04:18:51;20.95;;;9.52;;
21038;SDS011;10678;51.002;4.786;2023-05-23T04:21:18;16.25;;;9.10;;
21038;SDS011;10678;51.002;4.786;2023-05-23T04:23:43;18.38;;;9.45;;
21038;SDS011;10678;51.002;4.786;2023-05-23T04:26:10;16.63;;;7.65;;
21038;SDS011;10678;51.002;4.786;2023-05-23T04:28:35;15.45;;;8.38;;
21038;SDS011;10678;51.002;4.786;2023-05-23T04:31:01;17.20;;;8.93;;
21038;SDS011;10678;51.002;4.786;2023-05-23T04:33:28;16.88;;;8.80;;
21038;SDS011;10678;51.002;4.786;2023-05-23T04:35:54;16.30;;;8.45;;
21038;SDS011;10678;51.002;4.786;2023-05-23T04:38:20;16.63;;;8.63;;
21038;SDS011;10678;51.002;4.786;2023-05-23T04:40:46;18.17;;;8.00;;
21038;SDS011;10678;51.002;4.786;2023-05-23T04:43:13;14.75;;;8.68;;
21038;SDS011;10678;51.002;4.786;2023-05-23T04:45:40;14.52;;;8.27;;
21038;SDS011;10678;51.002;4.786;2023-05-23T04:48:06;17.50;;;8.85;;
21038;SDS011;10678;51.002;4.786;2023-05-23T04:50:32;17.63;;;8.45;;
21038;SDS011;10678;51.002;4.786;2023-05-23T04:52:59;16.05;;;8.45;;
21038;SDS011;10678;51.002;4.786;2023-05-23T04:55:25;16.45;;;8.40;;
21038;SDS011;10678;51.002;4.786;2023-05-23T04:57:51;16.73;;;8.00;;
21038;SDS011;10678;51.002;4.786;2023-05-23T05:00:16;18.30;;;8.48;;
21038;SDS011;10678;51.002;4.786;2023-05-23T05:02:42;17.08;;;8.85;;
21038;SDS011;10678;51.002;4.786;2023-05-23T05:05:08;16.20;;;7.88;;
21038;SDS011;10678;51.002;4.786;2023-05-23T05:07:34;17.95;;;7.97;;
21038;SDS011;10678;51.002;4.786;2023-05-23T05:09:59;14.05;;;7.30;;
21038;SDS011;10678;51.002;4.786;2023-05-23T05:12:25;15.52;;;8.30;;
21038;SDS011;10678;51.002;4.786;2023-05-23T05:14:51;15.95;;;7.95;;
21038;SDS011;10678;51.002;4.786;2023-05-23T05:17:16;14.55;;;7.93;;
21038;SDS011;10678;51.002;4.786;2023-05-23T05:19:43;17.70;;;7.55;;
21038;SDS011;10678;51.002;4.786;2023-05-23T05:22:10;17.00;;;7.43;;
21038;SDS011;10678;51.002;4.786;2023-05-23T05:24:35;13.20;;;7.00;;
21038;SDS011;10678;51.002;4.786;2023-05-23T05:27:01;18.67;;;8.30;;
21038;SDS011;10678;51.002;4.786;2023-05-23T05:29:27;14.93;;;7.68;;
21038;SDS011;10678;51.002;4.786;2023-05-23T05:31:53;13.13;;;7.10;;
21038;SDS011;10678;51.002;4.786;2023-05-23T05:34:18;19.17;;;8.35;;
21038;SDS011;10678;51.002;4.786;2023-05-23T05:36:45;17.08;;;7.75;;
21038;SDS011;10678;51.002;4.786;2023-05-23T05:39:12;17.65;;;7.60;;
21038;SDS011;10678;51.002;4.786;2023-05-23T05:41:39;20.73;;;8.60;;
21038;SDS011;10678;51.002;4.786;2023-05-23T05:44:05;19.00;;;8.45;;
21038;SDS011;10678;51.002;4.786;2023-05-23T05:46:31;18.83;;;8.73;;
21038;SDS011;10678;51.002;4.786;2023-05-23T05:48:57;16.92;;;9.25;;
21038;SDS011;10678;51.002;4.786;2023-05-23T05:51:22;16.33;;;9.00;;
21038;SDS011;10678;51.002;4.786;2023-05-23T05:53:48;22.35;;;9.05;;
21038;SDS011;10678;51.002;4.786;2023-05-23T05:56:13;21.10;;;9.63;;
21038;SDS011;10678;51.002;4.786;2023-05-23T05:58:39;19.13;;;10.70;;
21038;SDS011;10678;51.002;4.786;2023-05-23T06:01:05;22.52;;;10.02;;
21038;SDS011;10678;51.002;4.786;2023-05-23T06:03:31;27.10;;;11.45;;
21038;SDS011;10678;51.002;4.786;2023-05-23T06:05:57;24.42;;;10.30;;
21038;SDS011;10678;51.002;4.786;2023-05-23T06:08:23;31.98;;;10.75;;
21038;SDS011;10678;51.002;4.786;2023-05-23T06:10:49;24.63;;;11.00;;
21038;SDS011;10678;51.002;4.786;2023-05-23T06:13:15;23.75;;;10.88;;
21038;SDS011;10678;51.002;4.786;2023-05-23T06:15:41;23.67;;;9.88;;
21038;SDS011;10678;51.002;4.786;2023-05-23T06:18:07;23.40;;;9.77;;
21038;SDS011;10678;51.002;4.786;2023-05-23T06:20:33;25.00;;;8.98;;
21038;SDS011;10678;51.002;4.786;2023-05-23T06:22:58;23.48;;;9.07;;
21038;SDS011;10678;51.002;4.786;2023-05-23T06:25:25;26.52;;;9.38;;
21038;SDS011;10678;51.002;4.786;2023-05-23T06:27:51;26.80;;;9.63;;
21038;SDS011;10678;51.002;4.786;2023-05-23T06:30:17;21.00;;;8.40;;
21038;SDS011;10678;51.002;4.786;2023-05-23T06:32:42;27.83;;;8.95;;
21038;SDS011;10678;51.002;4.786;2023-05-23T06:35:08;20.77;;;8.07;;
21038;SDS011;10678;51.002;4.786;2023-05-23T06:37:34;31.10;;;7.65;;
21038;SDS011;10678;51.002;4.786;2023-05-23T06:40:00;20.50;;;7.20;;
21038;SDS011;10678;51.002;4.786;2023-05-23T06:42:25;21.48;;;7.00;;
21038;SDS011;10678;51.002;4.786;2023-05-23T06:44:51;21.73;;;7.30;;
21038;SDS011;10678;51.002;4.786;2023-05-23T06:47:17;17.95;;;5.45;;
21038;SDS011;10678;51.002;4.786;2023-05-23T06:49:42;17.52;;;5.50;;
21038;SDS011;10678;51.002;4.786;2023-05-23T06:52:09;17.13;;;5.35;;
21038;SDS011;10678;51.002;4.786;2023-05-23T06:54:35;15.40;;;4.55;;
21038;SDS011;10678;51.002;4.786;2023-05-23T06:57:00;14.30;;;4.65;;
21038;SDS011;10678;51.002;4.786;2023-05-23T06:59:26;11.60;;;4.50;;
21038;SDS011;10678;51.002;4.786;2023-05-23T07:01:52;15.90;;;4.32;;
21038;SDS011;10678;51.002;4.786;2023-05-23T07:04:17;18.58;;;4.40;;
21038;SDS011;10678;51.002;4.786;2023-05-23T07:06:43;11.57;;;4.10;;
21038;SDS011;10678;51.002;4.786;2023-05-23T07:09:08;12.90;;;4.30;;
21038;SDS011;10678;51.002;4.786;2023-05-23T07:11:35;12.07;;;4.65;;
21038;SDS011;10678;51.002;4.786;2023-05-23T07:14:03;12.65;;;4.30;;
21038;SDS011;10678;51.002;4.786;2023-05-23T07:16:29;15.40;;;4.75;;
21038;SDS011;10678;51.002;4.786;2023-05-23T07:18:55;15.98;;;4.47;;
21038;SDS011;10678;51.002;4.786;2023-05-23T07:21:21;11.85;;;4.05;;
21038;SDS011;10678;51.002;4.786;2023-05-23T07:23:46;12.55;;;4.10;;
21038;SDS011;10678;51.002;4.786;2023-05-23T07:26:12;18.88;;;4.30;;
21038;SDS011;10678;51.002;4.786;2023-05-23T07:28:38;12.15;;;4.22;;
21038;SDS011;10678;51.002;4.786;2023-05-23T07:31:03;17.15;;;4.65;;
21038;SDS011;10678;51.002;4.786;2023-05-23T07:33:29;17.75;;;4.45;;
21038;SDS011;10678;51.002;4.786;2023-05-23T07:35:55;13.98;;;4.80;;
21038;SDS011;10678;51.002;4.786;2023-05-23T07:38:20;16.13;;;4.82;;
21038;SDS011;10678;51.002;4.786;2023-05-23T07:40:46;15.07;;;5.07;;
21038;SDS011;10678;51.002;4.786;2023-05-23T07:43:12;17.38;;;4.97;;
21038;SDS011;10678;51.002;4.786;2023-05-23T07:45:37;18.48;;;5.13;;
21038;SDS011;10678;51.002;4.786;2023-05-23T07:48:03;19.88;;;5.55;;
21038;SDS011;10678;51.002;4.786;2023-05-23T07:50:28;17.63;;;4.80;;
21038;SDS011;10678;51.002;4.786;2023-05-23T07:52:55;15.75;;;4.45;;
21038;SDS011;10678;51.002;4.786;2023-05-23T08:11:04;17.00;;;5.85;;
21038;SDS011;10678;51.002;4.786;2023-05-23T08:13:30;15.57;;;5.63;;
21038;SDS011;10678;51.002;4.786;2023-05-23T08:15:55;18.17;;;5.20;;
21038;SDS011;10678;51.002;4.786;2023-05-23T08:18:21;15.68;;;4.95;;
21038;SDS011;10678;51.002;4.786;2023-05-23T08:20:47;16.10;;;6.60;;
21038;SDS011;10678;51.002;4.786;2023-05-23T08:23:12;18.30;;;5.35;;
21038;SDS011;10678;51.002;4.786;2023-05-23T08:25:38;13.88;;;5.15;;
21038;SDS011;10678;51.002;4.786;2023-05-23T08:28:04;17.38;;;5.95;;
21038;SDS011;10678;51.002;4.786;2023-05-23T08:30:29;21.75;;;6.45;;
21038;SDS011;10678;51.002;4.786;2023-05-23T08:32:57;18.73;;;5.93;;
21038;SDS011;10678;51.002;4.786;2023-05-23T08:35:24;18.48;;;6.65;;
21038;SDS011;10678;51.002;4.786;2023-05-23T08:37:53;17.10;;;6.35;;
21038;SDS011;10678;51.002;4.786;2023-05-23T08:40:20;17.52;;;6.25;;
21038;SDS011;10678;51.002;4.786;2023-05-23T08:42:49;12.65;;;5.68;;
21038;SDS011;10678;51.002;4.786;2023-05-23T08:45:16;18.52;;;5.85;;
21038;SDS011;10678;51.002;4.786;2023-05-23T08:47:42;17.88;;;6.28;;
21038;SDS011;10678;51.002;4.786;2023-05-23T08:50:13;15.77;;;5.47;;
21038;SDS011;10678;51.002;4.786;2023-05-23T08:52:47;16.13;;;5.45;;
21038;SDS011;10678;51.002;4.786;2023-05-23T08:55:19;19.55;;;5.55;;
21038;SDS011;10678;51.002;4.786;2023-05-23T08:57:58;16.58;;;5.70;;
21038;SDS011;10678;51.002;4.786;2023-05-23T09:00:25;11.20;;;5.47;;
21038;SDS011;10678;51.002;4.786;2023-05-23T09:02:52;11.60;;;5.60;;
21038;SDS011;10678;51.002;4.786;2023-05-23T09:05:18;12.68;;;4.95;;
21038;SDS011;10678;51.002;4.786;2023-05-23T09:07:45;14.93;;;6.07;;
21038;SDS011;10678;51.002;4.786;2023-05-23T09:10:15;11.93;;;5.25;;
21038;SDS011;10678;51.002;4.786;2023-05-23T09:12:42;13.95;;;4.85;;
21038;SDS011;10678;51.002;4.786;2023-05-23T09:15:08;12.05;;;5.13;;
21038;SDS011;10678;51.002;4.786;2023-05-23T09:17:35;16.42;;;5.80;;
21038;SDS011;10678;51.002;4.786;2023-05-23T09:20:09;17.98;;;5.55;;
21038;SDS011;10678;51.002;4.786;2023-05-23T09:22:37;18.13;;;5.75;;
21038;SDS011;10678;51.002;4.786;2023-05-23T09:25:03;14.55;;;5.07;;
21038;SDS011;10678;51.002;4.786;2023-05-23T09:27:30;12.75;;;5.28;;
21038;SDS011;10678;51.002;4.786;2023-05-23T09:29:55;14.00;;;5.97;;
21038;SDS011;10678;51.002;4.786;2023-05-23T09:32:21;17.55;;;5.53;;
21038;SDS011;10678;51.002;4.786;2023-05-23T09:35:00;11.65;;;4.80;;
21038;SDS011;10678;51.002;4.786;2023-05-23T09:40:04;13.02;;;6.03;;
21038;SDS011;10678;51.002;4.786;2023-05-23T09:42:46;15.50;;;5.57;;
21038;SDS011;10678;51.002;4.786;2023-05-23T09:45:13;21.52;;;5.93;;
21038;SDS011;10678;51.002;4.786;2023-05-23T09:47:58;13.77;;;5.38;;
21038;SDS011;10678;51.002;4.786;2023-05-23T09:50:24;16.92;;;6.60;;
21038;SDS011;10678;51.002;4.786;2023-05-23T09:52:55;13.80;;;5.22;;
21038;SDS011;10678;51.002;4.786;2023-05-23T09:55:21;13.45;;;5.20;;
21038;SDS011;10678;51.002;4.786;2023-05-23T09:57:48;13.68;;;4.95;;
21038;SDS011;10678;51.002;4.786;2023-05-23T10:00:17;13.48;;;5.65;;
21038;SDS011;10678;51.002;4.786;2023-05-23T10:02:54;14.55;;;5.10;;
21038;SDS011;10678;51.002;4.786;2023-05-23T10:05:33;18.00;;;5.15;;
21038;SDS011;10678;51.002;4.786;2023-05-23T10:08:00;13.38;;;5.18;;
21038;SDS011;10678;51.002;4.786;2023-05-23T10:10:30;12.43;;;5.03;;
21038;SDS011;10678;51.002;4.786;2023-05-23T10:12:57;12.95;;;4.75;;
21038;SDS011;10678;51.002;4.786;2023-05-23T10:15:30;12.75;;;5.15;;
21038;SDS011;10678;51.002;4.786;2023-05-23T10:20:31;10.68;;;5.05;;
21038;SDS011;10678;51.002;4.786;2023-05-23T10:22:59;13.60;;;5.65;;
21038;SDS011;10678;51.002;4.786;2023-05-23T10:25:26;10.50;;;4.93;;
21038;SDS011;10678;51.002;4.786;2023-05-23T10:27:56;12.23;;;5.10;;
21038;SDS011;10678;51.002;4.786;2023-05-23T10:30:26;10.27;;;4.93;;
21038;SDS011;10678;51.002;4.786;2023-05-23T10:32:53;12.35;;;4.72;;
21038;SDS011;10678;51.002;4.786;2023-05-23T10:38:48;8.98;;;4.63;;
21038;SDS011;10678;51.002;4.786;2023-05-23T10:41:22;12.02;;;5.07;;
21038;SDS011;10678;51.002;4.786;2023-05-23T10:46:53;12.80;;;4.60;;
21038;SDS011;10678;51.002;4.786;2023-05-23T10:49:27;10.93;;;4.72;;
21038;SDS011;10678;51.002;4.786;2023-05-23T10:52:02;13.70;;;4.53;;
21038;SDS011;10678;51.002;4.786;2023-05-23T10:54:33;10.75;;;3.67;;
21038;SDS011;10678;51.002;4.786;2023-05-23T10:57:15;9.70;;;3.97;;
21038;SDS011;10678;51.002;4.786;2023-05-23T10:59:43;9.13;;;3.85;;
21038;SDS011;10678;51.002;4.786;2023-05-23T11:02:14;9.00;;;3.25;;
21038;SDS011;10678;51.002;4.786;2023-05-23T11:04:43;6.95;;;3.08;;
21038;SDS011;10678;51.002;4.786;2023-05-23T11:07:28;8.63;;;3.28;;
21038;SDS011;10678;51.002;4.786;2023-05-23T11:10:07;6.43;;;2.75;;
21038;SDS011;10678;51.002;4.786;2023-05-23T11:12:35;7.75;;;2.63;;
21038;SDS011;10678;51.002;4.786;2023-05-23T11:15:05;10.02;;;2.83;;
21038;SDS011;10678;51.002;4.786;2023-05-23T11:17:51;6.15;;;2.50;;
21038;SDS011;10678;51.002;4.786;2023-05-23T11:20:19;17.48;;;3.85;;
21038;SDS011;10678;51.002;4.786;2023-05-23T11:23:00;7.22;;;3.13;;
21038;SDS011;10678;51.002;4.786;2023-05-23T11:25:40;9.52;;;2.70;;
21038;SDS011;10678;51.002;4.786;2023-05-23T11:28:07;8.48;;;2.53;;
21038;SDS011;10678;51.002;4.786;2023-05-23T11:30:34;8.27;;;2.30;;
21038;SDS011;10678;51.002;4.786;2023-05-23T11:33:06;7.35;;;2.00;;
21038;SDS011;10678;51.002;4.786;2023-05-23T11:35:36;8.13;;;2.30;;
21038;SDS011;10678;51.002;4.786;2023-05-23T11:38:03;8.25;;;2.50;;
21038;SDS011;10678;51.002;4.786;2023-05-23T11:40:39;7.97;;;2.13;;
21038;SDS011;10678;51.002;4.786;2023-05-23T11:43:07;12.30;;;3.17;;
21038;SDS011;10678;51.002;4.786;2023-05-23T11:45:35;12.85;;;3.05;;
21038;SDS011;10678;51.002;4.786;2023-05-23T11:48:08;10.57;;;2.80;;
21038;SDS011;10678;51.002;4.786;2023-05-23T11:50:34;11.07;;;2.70;;
21038;SDS011;10678;51.002;4.786;2023-05-23T11:53:08;14.02;;;2.63;;
21038;SDS011;10678;51.002;4.786;2023-05-23T11:55:34;9.77;;;2.55;;
21038;SDS011;10678;51.002;4.786;2023-05-23T11:58:03;9.10;;;3.00;;
21038;SDS011;10678;51.002;4.786;2023-05-23T12:00:29;9.52;;;3.20;;
21038;SDS011;10678;51.002;4.786;2023-05-23T12:02:55;10.73;;;3.30;;
21038;SDS011;10678;51.002;4.786;2023-05-23T12:05:21;9.27;;;3.03;;
21038;SDS011;10678;51.002;4.786;2023-05-23T12:07:47;10.68;;;2.67;;
21038;SDS011;10678;51.002;4.786;2023-05-23T12:10:13;13.57;;;3.13;;
21038;SDS011;10678;51.002;4.786;2023-05-23T12:12:46;10.45;;;2.85;;
21038;SDS011;10678;51.002;4.786;2023-05-23T12:15:12;12.60;;;3.03;;
21038;SDS011;10678;51.002;4.786;2023-05-23T12:17:42;10.00;;;3.53;;
21038;SDS011;10678;51.002;4.786;2023-05-23T12:20:12;12.20;;;3.20;;
21038;SDS011;10678;51.002;4.786;2023-05-23T12:22:38;14.68;;;3.50;;
21038;SDS011;10678;51.002;4.786;2023-05-23T12:25:07;15.50;;;3.70;;
21038;SDS011;10678;51.002;4.786;2023-05-23T12:27:34;12.32;;;3.88;;
21038;SDS011;10678;51.002;4.786;2023-05-23T12:30:04;13.52;;;3.35;;
21038;SDS011;10678;51.002;4.786;2023-05-23T12:32:38;11.45;;;2.83;;
21038;SDS011;10678;51.002;4.786;2023-05-23T12:35:06;14.15;;;3.72;;
21038;SDS011;10678;51.002;4.786;2023-05-23T12:37:39;13.30;;;3.42;;
21038;SDS011;10678;51.002;4.786;2023-05-23T12:42:57;11.05;;;3.30;;
21038;SDS011;10678;51.002;4.786;2023-05-23T12:45:23;11.02;;;2.95;;
21038;SDS011;10678;51.002;4.786;2023-05-23T12:47:49;15.38;;;3.60;;
21038;SDS011;10678;51.002;4.786;2023-05-23T12:50:15;12.90;;;3.20;;
21038;SDS011;10678;51.002;4.786;2023-05-23T12:52:41;11.18;;;2.88;;
21038;SDS011;10678;51.002;4.786;2023-05-23T12:55:07;12.45;;;2.92;;
21038;SDS011;10678;51.002;4.786;2023-05-23T12:57:34;14.13;;;2.95;;
21038;SDS011;10678;51.002;4.786;2023-05-23T13:00:00;9.20;;;3.00;;
21038;SDS011;10678;51.002;4.786;2023-05-23T13:02:26;12.20;;;3.20;;
21038;SDS011;10678;51.002;4.786;2023-05-23T13:04:52;12.57;;;3.30;;
21038;SDS011;10678;51.002;4.786;2023-05-23T13:07:18;13.65;;;3.00;;
21038;SDS011;10678;51.002;4.786;2023-05-23T13:09:44;13.95;;;3.28;;
21038;SDS011;10678;51.002;4.786;2023-05-23T13:12:09;16.23;;;3.53;;
21038;SDS011;10678;51.002;4.786;2023-05-23T13:14:36;9.25;;;3.50;;
21038;SDS011;10678;51.002;4.786;2023-05-23T13:17:02;10.90;;;3.28;;
21038;SDS011;10678;51.002;4.786;2023-05-23T13:19:28;9.77;;;3.17;;
21038;SDS011;10678;51.002;4.786;2023-05-23T13:21:53;15.05;;;3.33;;
21038;SDS011;10678;51.002;4.786;2023-05-23T13:24:19;13.20;;;3.47;;
21038;SDS011;10678;51.002;4.786;2023-05-23T13:26:45;14.63;;;3.47;;
21038;SDS011;10678;51.002;4.786;2023-05-23T13:29:11;10.35;;;3.33;;
21038;SDS011;10678;51.002;4.786;2023-05-23T13:31:36;12.40;;;3.22;;
21038;SDS011;10678;51.002;4.786;2023-05-23T13:34:02;12.77;;;3.33;;
21038;SDS011;10678;51.002;4.786;2023-05-23T13:36:28;14.77;;;3.97;;
21038;SDS011;10678;51.002;4.786;2023-05-23T13:38:54;13.40;;;2.95;;
21038;SDS011;10678;51.002;4.786;2023-05-23T13:41:19;14.57;;;3.25;;
21038;SDS011;10678;51.002;4.786;2023-05-23T13:43:45;9.32;;;3.10;;
21038;SDS011;10678;51.002;4.786;2023-05-23T13:46:11;15.05;;;4.30;;
21038;SDS011;10678;51.002;4.786;2023-05-23T13:48:37;10.95;;;3.70;;
21038;SDS011;10678;51.002;4.786;2023-05-23T13:51:03;12.65;;;3.80;;
21038;SDS011;10678;51.002;4.786;2023-05-23T13:53:29;13.02;;;3.55;;
21038;SDS011;10678;51.002;4.786;2023-05-23T13:55:55;13.35;;;3.65;;
21038;SDS011;10678;51.002;4.786;2023-05-23T13:58:21;12.48;;;3.42;;
21038;SDS011;10678;51.002;4.786;2023-05-23T14:00:46;14.30;;;3.75;;
21038;SDS011;10678;51.002;4.786;2023-05-23T14:03:12;16.10;;;4.32;;
21038;SDS011;10678;51.002;4.786;2023-05-23T14:05:39;16.63;;;3.25;;
21038;SDS011;10678;51.002;4.786;2023-05-23T14:08:05;11.95;;;3.10;;
21038;SDS011;10678;51.002;4.786;2023-05-23T14:10:31;16.33;;;2.85;;
21038;SDS011;10678;51.002;4.786;2023-05-23T14:12:57;12.27;;;3.60;;
21038;SDS011;10678;51.002;4.786;2023-05-23T14:15:23;15.98;;;3.78;;
21038;SDS011;10678;51.002;4.786;2023-05-23T14:17:49;12.05;;;3.28;;
21038;SDS011;10678;51.002;4.786;2023-05-23T14:20:19;16.65;;;3.53;;
21038;SDS011;10678;51.002;4.786;2023-05-23T14:22:48;10.52;;;3.53;;
21038;SDS011;10678;51.002;4.786;2023-05-23T14:25:15;14.73;;;3.25;;
21038;SDS011;10678;51.002;4.786;2023-05-23T14:27:41;15.77;;;3.78;;
21038;SDS011;10678;51.002;4.786;2023-05-23T14:30:07;17.10;;;3.20;;
21038;SDS011;10678;51.002;4.786;2023-05-23T14:32:33;17.95;;;3.50;;
21038;SDS011;10678;51.002;4.786;2023-05-23T14:35:03;16.38;;;4.05;;
21038;SDS011;10678;51.002;4.786;2023-05-23T14:37:29;14.45;;;3.45;;
21038;SDS011;10678;51.002;4.786;2023-05-23T14:39:55;15.35;;;3.70;;
21038;SDS011;10678;51.002;4.786;2023-05-23T14:42:21;16.17;;;3.55;;
21038;SDS011;10678;51.002;4.786;2023-05-23T14:44:46;12.68;;;3.10;;
21038;SDS011;10678;51.002;4.786;2023-05-23T14:47:12;18.33;;;3.95;;
21038;SDS011;10678;51.002;4.786;2023-05-23T14:49:38;14.73;;;3.50;;
21038;SDS011;10678;51.002;4.786;2023-05-23T14:52:03;16.98;;;3.10;;
21038;SDS011;10678;51.002;4.786;2023-05-23T14:54:29;17.15;;;3.10;;
21038;SDS011;10678;51.002;4.786;2023-05-23T14:56:55;14.48;;;2.53;;
21038;SDS011;10678;51.002;4.786;2023-05-23T14:59:21;12.05;;;3.30;;
21038;SDS011;10678;51.002;4.786;2023-05-23T15:01:46;11.05;;;2.97;;
21038;SDS011;10678;51.002;4.786;2023-05-23T15:04:12;15.90;;;3.50;;
21038;SDS011;10678;51.002;4.786;2023-05-23T15:06:38;15.38;;;3.45;;